createdAt,value
2022-08-25T00:00:29.533Z,22.00
2022-08-25T00:02:57.841Z,22.00
2022-08-25T00:05:29.354Z,22.00
2022-08-25T00:08:00.230Z,21.90
2022-08-25T00:10:28.725Z,21.90
2022-08-25T00:12:58.042Z,21.90
2022-08-25T00:15:26.681Z,21.90
2022-08-25T00:17:54.795Z,21.80
2022-08-25T00:20:23.470Z,21.80
2022-08-25T00:22:51.395Z,21.70
2022-08-25T00:25:20.250Z,21.80
2022-08-25T00:27:48.687Z,21.70
2022-08-25T00:30:19.458Z,21.70
2022-08-25T00:32:52.535Z,21.60
2022-08-25T00:35:24.955Z,21.60
2022-08-25T00:37:52.858Z,21.60
2022-08-25T00:40:20.993Z,21.50
2022-08-25T00:42:49.030Z,21.50
2022-08-25T00:45:18.875Z,21.50
2022-08-25T00:47:46.883Z,21.50
2022-08-25T00:50:15.278Z,21.50
2022-08-25T00:52:46.163Z,21.50
2022-08-25T00:55:19.423Z,21.40
2022-08-25T00:57:55.410Z,21.40
2022-08-25T01:00:28.609Z,21.30
2022-08-25T01:02:57.931Z,21.30
2022-08-25T01:05:28.086Z,21.30
2022-08-25T01:07:58.624Z,21.20
2022-08-25T01:10:28.806Z,21.20
2022-08-25T01:13:16.555Z,21.30
2022-08-25T01:15:46.454Z,21.20
2022-08-25T01:18:15.349Z,21.20
2022-08-25T01:20:43.613Z,21.10
2022-08-25T01:23:12.884Z,21.10
2022-08-25T01:25:49.525Z,21.00
2022-08-25T01:28:18.218Z,20.90
2022-08-25T01:30:46.444Z,20.90
2022-08-25T01:33:14.650Z,20.80
2022-08-25T01:35:42.599Z,20.80
2022-08-25T01:38:12.401Z,20.80
2022-08-25T01:40:40.955Z,20.70
2022-08-25T01:43:17.396Z,20.70
2022-08-25T01:45:48.242Z,20.70
2022-08-25T01:48:17.597Z,20.70
2022-08-25T01:50:45.621Z,20.70
2022-08-25T01:53:20.294Z,20.80
2022-08-25T01:55:55.858Z,20.80
2022-08-25T01:58:26.392Z,20.70
2022-08-25T02:00:57.027Z,20.70
2022-08-25T02:03:26.079Z,20.70
2022-08-25T02:05:55.078Z,20.70
2022-08-25T02:08:25.094Z,20.60
2022-08-25T02:10:53.947Z,20.60
2022-08-25T02:13:26.956Z,20.60
2022-08-25T02:16:02.257Z,20.60
2022-08-25T02:18:30.239Z,20.60
2022-08-25T02:20:58.169Z,20.50
2022-08-25T02:23:28.230Z,20.50
2022-08-25T02:25:57.233Z,20.50
2022-08-25T02:28:25.613Z,20.50
2022-08-25T02:30:58.561Z,20.40
2022-08-25T02:33:29.550Z,20.40
2022-08-25T02:35:59.555Z,20.40
2022-08-25T02:38:29.797Z,20.30
2022-08-25T02:40:58.554Z,20.30
2022-08-25T02:43:27.058Z,20.20
2022-08-25T02:45:55.662Z,20.20
2022-08-25T02:48:24.461Z,20.20
2022-08-25T02:50:53.611Z,20.10
2022-08-25T02:53:22.453Z,20.10
2022-08-25T02:55:51.661Z,20.10
2022-08-25T02:58:19.542Z,20.10
2022-08-25T03:00:47.842Z,20.10
2022-08-25T03:03:16.732Z,20.10
2022-08-25T03:05:44.940Z,20.00
2022-08-25T03:08:13.883Z,20.00
2022-08-25T03:10:41.841Z,20.00
2022-08-25T03:13:11.396Z,19.90
2022-08-25T03:15:39.385Z,20.00
2022-08-25T03:18:08.629Z,20.00
2022-08-25T03:20:37.127Z,19.90
2022-08-25T03:23:06.128Z,19.90
2022-08-25T03:25:51.878Z,19.90
2022-08-25T03:28:21.538Z,19.90
2022-08-25T03:31:00.419Z,19.90
2022-08-25T03:33:28.723Z,19.90
2022-08-25T03:35:57.135Z,19.90
2022-08-25T03:38:25.541Z,19.90
2022-08-25T03:40:54.194Z,19.80
2022-08-25T03:43:23.702Z,19.80
2022-08-25T03:45:52.035Z,19.80
2022-08-25T03:48:19.966Z,19.80
2022-08-25T03:50:50.769Z,19.80
2022-08-25T03:53:20.537Z,19.80
2022-08-25T03:55:48.698Z,19.80
2022-08-25T03:58:18.099Z,19.80
2022-08-25T04:00:47.380Z,19.80
2022-08-25T04:03:15.306Z,19.80
2022-08-25T04:05:43.234Z,19.90
2022-08-25T04:08:11.162Z,19.80
2022-08-25T04:10:39.196Z,19.90
2022-08-25T04:13:07.315Z,19.80
2022-08-25T04:15:36.462Z,19.80
2022-08-25T04:18:05.969Z,19.70
2022-08-25T04:20:34.022Z,19.70
2022-08-25T04:23:01.940Z,19.70
2022-08-25T04:25:30.028Z,19.70
2022-08-25T04:27:57.935Z,19.70
2022-08-25T04:30:25.961Z,19.70
2022-08-25T04:32:53.842Z,19.70
2022-08-25T04:35:23.630Z,19.60
2022-08-25T04:37:51.553Z,19.70
2022-08-25T04:40:20.484Z,19.80
2022-08-25T04:42:57.347Z,20.00
2022-08-25T04:45:25.681Z,20.20
2022-08-25T04:47:56.340Z,20.50
2022-08-25T04:50:25.584Z,20.60
2022-08-25T04:52:53.758Z,20.70
2022-08-25T04:55:22.185Z,20.90
2022-08-25T04:57:50.138Z,21.10
2022-08-25T05:00:19.281Z,21.60
2022-08-25T05:02:47.155Z,22.30
2022-08-25T05:05:15.081Z,23.10
2022-08-25T05:07:44.401Z,23.90
2022-08-25T05:10:12.322Z,24.60
2022-08-25T05:12:40.324Z,25.20
2022-08-25T05:15:23.733Z,25.90
2022-08-25T05:17:55.798Z,26.40
2022-08-25T05:20:24.670Z,27.10
2022-08-25T05:22:54.259Z,27.20
2022-08-25T05:25:27.092Z,27.60
2022-08-25T05:27:54.948Z,27.90
2022-08-25T05:30:22.829Z,27.40
2022-08-25T05:32:51.168Z,26.70
2022-08-25T05:35:20.238Z,26.30
2022-08-25T05:37:48.275Z,25.80
2022-08-25T05:40:17.670Z,25.70
2022-08-25T05:42:45.849Z,26.10
2022-08-25T05:45:15.862Z,27.00
2022-08-25T05:47:48.773Z,27.00
2022-08-25T05:50:17.823Z,26.00
2022-08-25T05:52:46.682Z,25.70
2022-08-25T05:55:15.531Z,25.30
2022-08-25T05:57:45.202Z,25.20
2022-08-25T06:00:14.509Z,24.80
2022-08-25T06:02:43.560Z,24.90
2022-08-25T06:05:13.780Z,25.60
2022-08-25T06:07:42.018Z,26.60
2022-08-25T06:10:12.054Z,27.40
2022-08-25T06:12:44.374Z,28.30
2022-08-25T06:15:16.536Z,29.40
2022-08-25T06:17:44.470Z,30.40
2022-08-25T06:20:14.822Z,31.40
2022-08-25T06:22:43.120Z,32.50
2022-08-25T06:25:13.480Z,33.60
2022-08-25T06:27:41.910Z,34.60
2022-08-25T06:30:14.925Z,35.60
2022-08-25T06:32:47.057Z,36.50
2022-08-25T06:35:18.927Z,37.40
2022-08-25T06:37:47.369Z,38.00
2022-08-25T06:40:17.014Z,38.30
2022-08-25T06:42:49.482Z,38.50
2022-08-25T06:45:17.932Z,39.00
2022-08-25T06:47:47.227Z,39.20
2022-08-25T06:50:15.606Z,39.20
2022-08-25T06:52:43.474Z,38.40
2022-08-25T06:55:12.219Z,37.00
2022-08-25T06:57:42.756Z,36.60
2022-08-25T07:00:13.204Z,36.90
2022-08-25T07:02:42.445Z,36.10
2022-08-25T07:05:16.965Z,35.40
2022-08-25T07:07:54.728Z,35.40
2022-08-25T07:10:22.719Z,35.00
2022-08-25T07:12:51.725Z,34.60
2022-08-25T07:15:21.284Z,34.00
2022-08-25T07:17:50.337Z,34.00
2022-08-25T07:20:20.297Z,34.40
2022-08-25T07:22:49.003Z,34.30
2022-08-25T07:25:23.013Z,34.60
2022-08-25T07:27:55.882Z,34.70
2022-08-25T07:30:26.681Z,35.60
2022-08-25T07:32:55.086Z,37.10
2022-08-25T07:35:26.352Z,37.90
2022-08-25T07:37:57.227Z,37.40
2022-08-25T07:40:28.122Z,36.70
2022-08-25T07:42:57.855Z,36.70
2022-08-25T07:45:30.740Z,36.60
2022-08-25T07:47:59.569Z,36.90
2022-08-25T07:50:31.297Z,37.90
2022-08-25T07:53:00.198Z,38.60
2022-08-25T07:55:30.529Z,38.70
2022-08-25T07:57:59.841Z,39.30
2022-08-25T08:00:32.097Z,40.20
2022-08-25T08:03:00.958Z,41.00
2022-08-25T08:05:33.729Z,41.50
2022-08-25T08:08:02.613Z,42.10
2022-08-25T08:11:03.298Z,42.60
2022-08-25T08:13:26.294Z,43.00
2022-08-25T08:15:54.365Z,43.50
2022-08-25T08:18:22.300Z,44.00
2022-08-25T08:20:51.548Z,44.10
2022-08-25T08:23:19.473Z,44.30
2022-08-25T08:25:48.199Z,44.30
2022-08-25T08:28:16.065Z,44.00
2022-08-25T08:30:53.430Z,44.10
2022-08-25T08:33:23.792Z,44.20
2022-08-25T08:35:59.370Z,44.20
2022-08-25T08:38:27.530Z,44.30
2022-08-25T08:41:23.564Z,44.90
2022-08-25T08:44:02.247Z,45.10
2022-08-25T08:46:40.837Z,45.00
2022-08-25T08:49:37.507Z,44.90
2022-08-25T08:52:09.374Z,44.80
2022-08-25T08:54:41.391Z,44.70
2022-08-25T08:57:16.626Z,44.20
2022-08-25T08:59:50.250Z,44.10
2022-08-25T09:02:38.821Z,44.50
2022-08-25T09:05:19.838Z,45.10
2022-08-25T09:07:54.856Z,45.50
2022-08-25T09:10:24.779Z,45.20
2022-08-25T09:13:01.709Z,45.20
2022-08-25T09:15:58.630Z,45.10
2022-08-25T09:18:41.003Z,44.60
2022-08-25T09:21:29.448Z,44.30
2022-08-25T09:24:11.918Z,44.10
2022-08-25T09:26:46.081Z,43.30
2022-08-25T09:29:17.186Z,42.30
2022-08-25T09:31:46.197Z,42.30
2022-08-25T09:34:19.180Z,43.00
2022-08-25T09:36:48.705Z,43.70
2022-08-25T09:39:19.743Z,43.40
2022-08-25T09:41:51.529Z,42.80
2022-08-25T09:44:23.047Z,43.00
2022-08-25T09:47:02.157Z,42.40
2022-08-25T09:49:37.566Z,41.90
2022-08-25T09:52:37.773Z,42.30
2022-08-25T09:55:28.552Z,42.30
2022-08-25T09:57:58.403Z,42.80
2022-08-25T10:00:30.761Z,42.50
2022-08-25T10:03:14.321Z,41.60
2022-08-25T10:05:59.906Z,40.50
2022-08-25T10:08:33.115Z,39.70
2022-08-25T10:11:08.648Z,39.00
2022-08-25T10:13:41.939Z,38.20
2022-08-25T10:16:24.284Z,38.10
2022-08-25T10:19:10.022Z,37.70
2022-08-25T10:21:39.780Z,36.30
2022-08-25T10:24:09.437Z,36.10
2022-08-25T10:26:55.941Z,35.60
2022-08-25T10:29:37.689Z,36.40
2022-08-25T10:32:15.076Z,37.90
2022-08-25T10:34:51.904Z,37.50
2022-08-25T10:37:35.674Z,36.20
2022-08-25T10:40:13.586Z,35.10
2022-08-25T10:42:54.873Z,34.30
2022-08-25T10:45:42.996Z,34.00
2022-08-25T10:48:40.462Z,34.50
2022-08-25T10:51:28.007Z,35.20
2022-08-25T10:54:02.337Z,36.40
2022-08-25T10:56:35.640Z,36.60
2022-08-25T10:59:35.605Z,36.80
2022-08-25T11:02:53.271Z,37.20
2022-08-25T11:05:28.000Z,37.00
2022-08-25T11:08:08.165Z,36.50
2022-08-25T11:10:43.059Z,35.80
2022-08-25T11:13:18.814Z,35.60
2022-08-25T11:16:15.951Z,36.00
2022-08-25T11:18:51.236Z,35.80
2022-08-25T11:21:24.977Z,35.00
2022-08-25T11:23:59.554Z,35.10
2022-08-25T11:26:36.828Z,35.30
2022-08-25T11:29:13.435Z,35.40
2022-08-25T11:31:53.263Z,35.00
2022-08-25T11:34:23.032Z,34.50
2022-08-25T11:36:54.614Z,33.90
2022-08-25T11:39:34.617Z,33.50
2022-08-25T11:42:14.614Z,32.90
2022-08-25T11:44:55.576Z,32.20
2022-08-25T11:47:43.521Z,31.90
2022-08-25T11:50:30.297Z,31.70
2022-08-25T11:53:02.027Z,31.70
2022-08-25T11:55:48.260Z,31.60
2022-08-25T11:58:31.360Z,31.40
2022-08-25T12:01:00.800Z,31.50
2022-08-25T12:03:56.518Z,31.40
2022-08-25T12:06:33.450Z,31.30
2022-08-25T12:09:21.301Z,31.40
2022-08-25T12:11:56.525Z,31.20
2022-08-25T12:14:48.613Z,31.20
2022-08-25T12:17:26.925Z,31.00
2022-08-25T12:20:00.228Z,30.90
2022-08-25T12:22:56.837Z,31.00
2022-08-25T12:25:46.858Z,31.00
2022-08-25T12:28:39.089Z,31.00
2022-08-25T12:31:17.430Z,30.60
2022-08-25T12:34:01.948Z,30.70
2022-08-25T12:36:33.343Z,30.80
2022-08-25T12:39:24.630Z,30.70
2022-08-25T12:42:11.934Z,30.50
2022-08-25T12:44:44.230Z,30.40
2022-08-25T12:47:34.755Z,30.30
2022-08-25T12:50:43.778Z,30.40
2022-08-25T12:53:21.392Z,30.40
2022-08-25T12:55:59.030Z,30.40
2022-08-25T12:59:00.862Z,30.50
2022-08-25T13:02:03.165Z,30.70
2022-08-25T13:05:36.985Z,30.60
2022-08-25T13:08:56.197Z,30.70
2022-08-25T13:11:42.140Z,30.50
2022-08-25T13:14:37.917Z,30.80
2022-08-25T13:17:09.952Z,30.70
2022-08-25T13:19:39.492Z,30.50
2022-08-25T13:22:16.317Z,30.50
2022-08-25T13:24:50.795Z,30.60
2022-08-25T13:27:28.590Z,30.80
2022-08-25T13:30:03.868Z,30.70
2022-08-25T13:32:35.637Z,30.70
2022-08-25T13:35:17.696Z,30.60
2022-08-25T13:37:47.003Z,30.80
2022-08-25T13:40:17.847Z,30.70
2022-08-25T13:42:55.463Z,30.60
2022-08-25T13:45:26.303Z,30.40
2022-08-25T13:47:56.174Z,30.40
2022-08-25T13:50:34.146Z,30.40
2022-08-25T13:53:04.993Z,30.40
2022-08-25T13:55:38.357Z,30.40
2022-08-25T13:58:24.657Z,30.30
2022-08-25T14:01:22.343Z,30.30
2022-08-25T14:04:01.232Z,30.40
2022-08-25T14:06:29.840Z,30.60
2022-08-25T14:09:16.129Z,30.60
2022-08-25T14:11:47.978Z,30.50
2022-08-25T14:14:35.237Z,30.50
2022-08-25T14:17:21.558Z,30.40
2022-08-25T14:19:55.703Z,30.30
2022-08-25T14:22:23.971Z,30.40
2022-08-25T14:24:55.022Z,30.20
2022-08-25T14:27:23.505Z,30.10
2022-08-25T14:29:53.104Z,30.20
2022-08-25T14:32:22.864Z,30.20
2022-08-25T14:34:51.406Z,30.20
2022-08-25T14:37:25.591Z,30.20
2022-08-25T14:39:54.774Z,30.30
2022-08-25T14:42:25.367Z,30.30
2022-08-25T14:44:56.184Z,30.20
2022-08-25T14:47:24.795Z,30.20
2022-08-25T14:49:52.931Z,30.20
2022-08-25T14:52:25.604Z,30.30
2022-08-25T14:54:53.833Z,30.40
2022-08-25T14:57:22.133Z,30.50
2022-08-25T14:59:52.396Z,30.40
2022-08-25T15:02:30.512Z,30.40
2022-08-25T15:05:05.965Z,30.40
2022-08-25T15:07:52.080Z,30.40
2022-08-25T15:10:21.779Z,30.40
2022-08-25T15:12:53.821Z,30.40
2022-08-25T15:15:22.439Z,30.40
2022-08-25T15:17:52.171Z,30.40
2022-08-25T15:20:20.493Z,30.30
2022-08-25T15:22:48.776Z,30.30
2022-08-25T15:25:18.160Z,30.40
2022-08-25T15:27:46.130Z,30.40
2022-08-25T15:30:15.007Z,30.40
2022-08-25T15:32:43.221Z,30.40
2022-08-25T15:35:15.346Z,30.30
2022-08-25T15:37:43.698Z,30.30
2022-08-25T15:40:12.783Z,30.40
2022-08-25T15:42:42.840Z,30.40
2022-08-25T15:45:14.443Z,30.40
2022-08-25T15:47:42.361Z,30.30
2022-08-25T15:50:14.749Z,30.10
2022-08-25T15:52:47.527Z,30.00
2022-08-25T15:55:17.810Z,29.80
2022-08-25T15:57:47.983Z,29.70
2022-08-25T16:00:19.091Z,29.40
2022-08-25T16:02:47.193Z,29.30
2022-08-25T16:05:16.817Z,29.20
2022-08-25T16:07:51.848Z,29.10
2022-08-25T16:10:20.617Z,29.10
2022-08-25T16:12:49.797Z,28.90
2022-08-25T16:15:17.950Z,28.90
2022-08-25T16:17:51.789Z,28.90
2022-08-25T16:20:24.343Z,28.90
2022-08-25T16:22:52.497Z,28.90
2022-08-25T16:25:20.923Z,29.00
2022-08-25T16:27:49.515Z,29.00
2022-08-25T16:30:17.930Z,29.00
2022-08-25T16:32:46.365Z,29.00
2022-08-25T16:35:15.158Z,29.10
2022-08-25T16:37:44.426Z,29.10
2022-08-25T16:40:14.897Z,29.10
2022-08-25T16:42:46.155Z,29.20
2022-08-25T16:45:15.444Z,29.20
2022-08-25T16:47:43.658Z,29.20
2022-08-25T16:50:12.165Z,29.10
2022-08-25T16:52:59.276Z,29.20
2022-08-25T16:55:39.398Z,29.10
2022-08-25T17:01:37.164Z,29.10
2022-08-25T17:07:39.636Z,29.10
2022-08-25T17:10:12.807Z,28.90
2022-08-25T17:13:18.102Z,29.00
2022-08-25T17:15:52.392Z,28.90
2022-08-25T17:18:31.022Z,28.90
2022-08-25T17:21:02.218Z,28.90
2022-08-25T17:23:35.469Z,28.90
2022-08-25T17:26:11.896Z,28.90
2022-08-25T17:28:49.747Z,28.90
2022-08-25T17:31:22.369Z,28.80
2022-08-25T17:33:59.708Z,28.70
2022-08-25T17:36:27.937Z,28.70
2022-08-25T17:38:56.764Z,28.70
2022-08-25T17:41:26.050Z,28.70
2022-08-25T17:43:55.700Z,28.60
2022-08-25T17:46:26.768Z,28.60
2022-08-25T17:48:59.209Z,28.60
2022-08-25T17:51:31.913Z,28.60
2022-08-25T17:54:00.647Z,28.60
2022-08-25T17:56:33.790Z,28.60
2022-08-25T17:59:09.289Z,28.50
2022-08-25T18:01:40.250Z,28.50
2022-08-25T18:04:15.632Z,28.40
2022-08-25T18:06:46.795Z,28.30
2022-08-25T18:09:15.118Z,28.20
2022-08-25T18:11:43.518Z,28.20
2022-08-25T18:14:16.527Z,28.10
2022-08-25T18:16:44.789Z,28.10
2022-08-25T18:19:14.386Z,28.00
2022-08-25T18:21:43.475Z,28.00
2022-08-25T18:24:13.290Z,27.90
2022-08-25T18:26:41.888Z,27.90
2022-08-25T18:29:12.952Z,27.90
2022-08-25T18:31:43.307Z,27.80
2022-08-25T18:34:13.517Z,27.80
2022-08-25T18:36:41.947Z,27.70
2022-08-25T18:39:34.050Z,27.70
2022-08-25T18:42:03.089Z,27.60
2022-08-25T18:44:32.687Z,27.60
2022-08-25T18:47:07.662Z,27.50
2022-08-25T18:49:37.173Z,27.40
2022-08-25T18:52:07.433Z,27.40
2022-08-25T18:54:36.320Z,27.40
2022-08-25T18:57:08.762Z,27.30
2022-08-25T18:59:37.398Z,27.30
2022-08-25T19:02:10.765Z,27.20
2022-08-25T19:04:42.437Z,27.30
2022-08-25T19:07:12.206Z,27.20
2022-08-25T19:09:40.619Z,27.20
2022-08-25T19:12:11.605Z,27.10
2022-08-25T19:14:57.540Z,27.10
2022-08-25T19:17:37.400Z,27.10
2022-08-25T19:20:11.294Z,27.10
2022-08-25T19:22:47.043Z,27.00
2022-08-25T19:25:16.004Z,27.00
2022-08-25T19:27:45.211Z,26.90
2022-08-25T19:30:15.516Z,26.90
2022-08-25T19:32:47.072Z,26.80
2022-08-25T19:35:31.980Z,26.80
2022-08-25T19:38:07.092Z,26.80
2022-08-25T19:41:09.386Z,26.70
2022-08-25T19:43:55.755Z,26.70
2022-08-25T19:46:40.843Z,26.70
2022-08-25T19:49:16.022Z,26.70
2022-08-25T19:51:54.204Z,26.60
2022-08-25T19:54:27.748Z,26.50
2022-08-25T19:56:57.444Z,26.60
2022-08-25T19:59:42.298Z,26.50
2022-08-25T20:02:15.914Z,26.50
2022-08-25T20:04:50.453Z,26.40
2022-08-25T20:07:20.028Z,26.40
2022-08-25T20:09:48.703Z,26.40
2022-08-25T20:12:18.155Z,26.20
2022-08-25T20:14:47.192Z,26.20
2022-08-25T20:17:23.499Z,26.10
2022-08-25T20:19:55.729Z,26.00
2022-08-25T20:22:26.588Z,25.90
2022-08-25T20:24:58.102Z,25.90
2022-08-25T20:27:31.616Z,25.80
2022-08-25T20:30:02.803Z,25.70
2022-08-25T20:32:32.425Z,25.70
2022-08-25T20:35:02.971Z,25.70
2022-08-25T20:37:31.833Z,25.60
2022-08-25T20:40:02.532Z,25.60
2022-08-25T20:42:30.799Z,25.60
2022-08-25T20:44:59.969Z,25.60
2022-08-25T20:47:30.426Z,25.50
2022-08-25T20:50:03.279Z,25.50
2022-08-25T20:52:37.374Z,25.50
2022-08-25T20:55:11.683Z,25.50
2022-08-25T20:57:41.430Z,25.40
2022-08-25T21:00:11.069Z,25.40
2022-08-25T21:02:39.159Z,25.30
2022-08-25T21:05:08.827Z,25.20
2022-08-25T21:07:38.549Z,25.10
2022-08-25T21:10:10.659Z,25.00
2022-08-25T21:12:42.812Z,24.90
2022-08-25T21:15:12.587Z,24.80
2022-08-25T21:17:41.641Z,24.80
2022-08-25T21:20:11.838Z,24.80
2022-08-25T21:22:41.134Z,24.80
2022-08-25T21:25:11.645Z,24.80
2022-08-25T21:27:40.815Z,24.70
2022-08-25T21:30:13.028Z,24.60
2022-08-25T21:32:41.234Z,24.70
2022-08-25T21:35:22.550Z,24.60
2022-08-25T21:37:53.474Z,24.60
2022-08-25T21:40:22.018Z,24.60
2022-08-25T21:42:50.026Z,24.60
2022-08-25T21:45:20.901Z,24.60
2022-08-25T21:47:50.086Z,24.60
2022-08-25T21:50:20.111Z,24.50
2022-08-25T21:52:48.092Z,24.50
2022-08-25T21:55:24.642Z,24.50
2022-08-25T21:57:54.703Z,24.40
2022-08-25T22:00:23.388Z,24.40
2022-08-25T22:02:51.677Z,24.40
2022-08-25T22:05:19.816Z,24.40
2022-08-25T22:07:48.376Z,24.40
2022-08-25T22:10:17.841Z,24.30
2022-08-25T22:12:48.887Z,24.30
2022-08-25T22:15:17.974Z,24.30
2022-08-25T22:17:48.219Z,24.30
2022-08-25T22:20:17.661Z,24.30
2022-08-25T22:22:45.662Z,24.30
2022-08-25T22:25:14.159Z,24.20
2022-08-25T22:27:42.594Z,24.20
2022-08-25T22:30:13.678Z,24.20
2022-08-25T22:32:42.454Z,24.20
2022-08-25T22:35:13.426Z,24.10
2022-08-25T22:37:41.360Z,24.10
2022-08-25T22:40:10.552Z,24.10
2022-08-25T22:42:38.529Z,24.10
2022-08-25T22:45:09.733Z,24.10
2022-08-25T22:47:39.860Z,24.10
2022-08-25T22:50:10.220Z,24.10
2022-08-25T22:52:38.283Z,24.10
2022-08-25T22:55:12.040Z,24.10
2022-08-25T22:57:41.378Z,24.00
2022-08-25T23:00:13.428Z,24.00
2022-08-25T23:02:42.983Z,23.90
2022-08-25T23:05:12.695Z,23.90
2022-08-25T23:07:41.953Z,23.90
2022-08-25T23:10:12.249Z,23.80
2022-08-25T23:12:43.791Z,23.90
2022-08-25T23:15:14.140Z,23.80
2022-08-25T23:17:43.450Z,23.80
2022-08-25T23:20:25.953Z,23.80
2022-08-25T23:22:53.928Z,23.80
2022-08-25T23:25:21.995Z,23.80
2022-08-25T23:27:49.984Z,23.80
2022-08-25T23:30:19.865Z,23.80
2022-08-25T23:32:50.736Z,23.80
2022-08-25T23:35:19.424Z,23.70
2022-08-25T23:37:48.079Z,23.70
2022-08-25T23:40:19.509Z,23.60
2022-08-25T23:42:48.209Z,23.60
2022-08-25T23:45:16.805Z,23.60
2022-08-25T23:47:44.694Z,23.50
2022-08-25T23:50:14.130Z,23.50
2022-08-25T23:52:42.160Z,23.50
2022-08-25T23:55:10.488Z,23.50
2022-08-25T23:57:38.411Z,23.50
